createdAt,value
2019-01-31T00:01:38.814Z,1.40
2019-01-31T00:04:47.135Z,1.40
2019-01-31T00:07:53.817Z,1.30
2019-01-31T00:11:07.341Z,1.30
2019-01-31T00:14:12.702Z,1.20
2019-01-31T00:17:17.605Z,1.10
2019-01-31T00:20:18.128Z,1.10
2019-01-31T00:23:23.780Z,1.10
2019-01-31T00:26:30.545Z,0.90
2019-01-31T00:29:40.272Z,0.90
2019-01-31T00:32:49.773Z,0.90
2019-01-31T00:35:51.744Z,0.80
2019-01-31T00:38:57.205Z,0.70
2019-01-31T00:42:04.723Z,0.70
2019-01-31T00:45:04.412Z,0.60
2019-01-31T00:48:27.332Z,0.70
2019-01-31T00:51:10.188Z,0.70
2019-01-31T00:54:08.914Z,0.70
2019-01-31T00:57:21.499Z,0.70
2019-01-31T01:00:17.574Z,0.70
2019-01-31T01:03:17.731Z,0.60
2019-01-31T01:06:18.950Z,0.60
2019-01-31T01:09:29.374Z,0.60
2019-01-31T01:12:44.928Z,0.50
2019-01-31T01:16:13.696Z,0.40
2019-01-31T01:19:32.012Z,0.30
2019-01-31T01:22:46.394Z,0.30
2019-01-31T01:25:49.338Z,0.30
2019-01-31T01:28:48.419Z,0.20
2019-01-31T01:31:37.400Z,0.20
2019-01-31T01:34:31.692Z,0.10
2019-01-31T01:37:31.145Z,0.10
2019-01-31T01:40:37.705Z,0.10
2019-01-31T01:43:21.854Z,0.10
2019-01-31T01:46:47.684Z,0.20
2019-01-31T01:49:48.517Z,0.20
2019-01-31T01:53:08.042Z,0.30
2019-01-31T01:56:12.278Z,0.30
2019-01-31T01:59:07.695Z,0.30
2019-01-31T02:02:13.845Z,0.20
2019-01-31T02:05:20.290Z,0.20
2019-01-31T02:08:12.727Z,0.10
2019-01-31T02:11:21.907Z,0.10
2019-01-31T02:14:23.512Z,0.20
2019-01-31T02:17:19.678Z,0.20
2019-01-31T02:20:08.309Z,0.20
2019-01-31T02:23:13.182Z,0.20
2019-01-31T02:26:10.870Z,0.10
2019-01-31T02:29:30.730Z,0.00
2019-01-31T02:32:35.518Z,0.00
2019-01-31T02:35:50.157Z,-0.10
2019-01-31T02:39:09.298Z,-0.20
2019-01-31T02:42:16.371Z,-0.20
2019-01-31T02:45:10.821Z,-0.20
2019-01-31T02:48:13.240Z,-0.20
2019-01-31T02:51:27.521Z,-0.20
2019-01-31T02:54:31.273Z,-0.30
2019-01-31T02:57:44.152Z,-0.30
2019-01-31T03:00:24.580Z,-0.30
2019-01-31T03:03:37.143Z,-0.30
2019-01-31T03:07:01.186Z,-0.40
2019-01-31T03:09:55.551Z,-0.40
2019-01-31T03:13:06.908Z,-0.50
2019-01-31T03:16:15.698Z,-0.50
2019-01-31T03:19:02.247Z,-0.50
2019-01-31T03:22:18.081Z,-0.60
2019-01-31T03:25:30.699Z,-0.60
2019-01-31T03:28:53.013Z,-0.60
2019-01-31T03:32:14.280Z,-0.60
2019-01-31T03:35:16.295Z,-0.60
2019-01-31T03:38:23.509Z,-0.60
2019-01-31T03:41:25.458Z,-0.60
2019-01-31T03:44:42.522Z,-0.60
2019-01-31T03:47:33.352Z,-0.70
2019-01-31T03:50:20.828Z,-0.60
2019-01-31T03:53:34.729Z,-0.60
2019-01-31T03:56:36.774Z,-0.60
2019-01-31T03:59:24.051Z,-0.70
2019-01-31T04:02:15.222Z,-0.70
2019-01-31T04:05:34.106Z,-0.60
2019-01-31T04:08:07.108Z,-0.70
2019-01-31T04:10:37.247Z,-0.60
2019-01-31T04:13:07.352Z,-0.60
2019-01-31T04:15:37.477Z,-0.60
2019-01-31T04:18:07.852Z,-0.60
2019-01-31T04:20:38.062Z,-0.50
2019-01-31T04:23:10.441Z,-0.40
2019-01-31T04:25:40.634Z,-0.40
2019-01-31T04:28:10.556Z,-0.40
2019-01-31T04:30:40.940Z,-0.40
2019-01-31T04:33:11.055Z,-0.30
2019-01-31T04:35:41.044Z,-0.30
2019-01-31T04:38:11.623Z,-0.30
2019-01-31T04:40:42.180Z,-0.20
2019-01-31T04:43:12.719Z,-0.20
2019-01-31T04:45:43.185Z,-0.10
2019-01-31T04:48:13.193Z,-0.10
2019-01-31T04:50:43.341Z,-0.10
2019-01-31T04:53:13.887Z,-0.20
2019-01-31T04:55:43.857Z,-0.10
2019-01-31T04:58:13.796Z,-0.10
2019-01-31T05:00:44.123Z,-0.20
2019-01-31T05:03:14.272Z,-0.30
2019-01-31T05:05:44.772Z,-0.20
2019-01-31T05:08:15.022Z,-0.20
2019-01-31T05:10:45.419Z,-0.20
2019-01-31T05:13:15.483Z,-0.10
2019-01-31T05:15:45.801Z,-0.20
2019-01-31T05:18:15.853Z,-0.20
2019-01-31T05:20:45.952Z,-0.20
2019-01-31T05:23:16.080Z,-0.10
2019-01-31T05:25:46.680Z,-0.10
2019-01-31T05:28:17.152Z,-0.20
2019-01-31T05:30:47.200Z,-0.20
2019-01-31T05:33:17.624Z,-0.20
2019-01-31T05:35:47.734Z,-0.20
2019-01-31T05:38:17.966Z,-0.30
2019-01-31T05:40:55.290Z,-0.30
2019-01-31T05:43:19.872Z,-0.30
2019-01-31T05:45:50.060Z,-0.30
2019-01-31T05:48:20.180Z,-0.30
2019-01-31T05:50:50.817Z,-0.30
2019-01-31T05:53:20.975Z,-0.20
2019-01-31T05:55:51.353Z,-0.20
2019-01-31T05:58:21.339Z,-0.30
2019-01-31T06:00:54.221Z,-0.20
2019-01-31T06:03:24.520Z,-0.20
2019-01-31T06:05:54.839Z,-0.20
2019-01-31T06:08:25.721Z,-0.20
2019-01-31T06:11:07.552Z,-0.20
2019-01-31T06:13:35.293Z,-0.20
2019-01-31T06:16:11.100Z,-0.20
2019-01-31T06:18:41.331Z,-0.10
2019-01-31T06:21:12.302Z,-0.10
2019-01-31T06:23:42.464Z,-0.10
2019-01-31T06:26:12.579Z,-0.10
2019-01-31T06:28:42.690Z,-0.10
2019-01-31T06:31:13.253Z,-0.20
2019-01-31T06:33:43.721Z,-0.10
2019-01-31T06:36:15.281Z,0.00
2019-01-31T06:38:49.818Z,0.00
2019-01-31T06:41:20.074Z,-0.10
2019-01-31T06:43:50.254Z,0.00
2019-01-31T06:46:20.597Z,0.00
2019-01-31T06:48:51.303Z,0.00
2019-01-31T06:51:21.498Z,0.00
2019-01-31T06:53:52.285Z,0.10
2019-01-31T06:56:31.044Z,0.10
2019-01-31T06:59:01.171Z,0.10
2019-01-31T07:01:31.329Z,0.20
2019-01-31T07:04:02.818Z,0.30
2019-01-31T07:06:33.259Z,0.40
2019-01-31T07:09:05.282Z,0.40
2019-01-31T07:11:35.325Z,0.50
2019-01-31T07:14:06.285Z,0.50
2019-01-31T07:16:36.538Z,0.50
2019-01-31T07:19:07.170Z,0.40
2019-01-31T07:21:37.208Z,0.40
2019-01-31T07:24:07.403Z,0.50
2019-01-31T07:26:37.591Z,0.50
2019-01-31T07:29:08.232Z,0.50
2019-01-31T07:31:41.327Z,0.50
2019-01-31T07:34:14.830Z,0.30
2019-01-31T07:36:50.260Z,0.30
2019-01-31T07:39:20.452Z,0.30
2019-01-31T07:42:04.940Z,0.40
2019-01-31T07:44:38.115Z,0.50
2019-01-31T07:47:11.172Z,0.50
2019-01-31T07:49:46.329Z,0.50
2019-01-31T07:52:14.986Z,0.50
2019-01-31T07:54:49.569Z,0.50
2019-01-31T07:57:28.431Z,0.50
2019-01-31T08:00:01.620Z,0.50
2019-01-31T08:02:34.335Z,0.50
2019-01-31T08:05:04.914Z,0.50
2019-01-31T08:07:36.285Z,0.40
2019-01-31T08:10:12.435Z,0.50
2019-01-31T08:12:54.769Z,0.50
2019-01-31T08:15:22.447Z,0.50
2019-01-31T08:17:52.744Z,0.50
2019-01-31T08:20:23.881Z,0.50
2019-01-31T08:23:00.121Z,0.60
2019-01-31T08:25:32.526Z,0.60
2019-01-31T08:28:04.828Z,0.70
2019-01-31T08:30:41.570Z,0.80
2019-01-31T08:33:17.832Z,0.80
2019-01-31T08:35:48.247Z,0.80
2019-01-31T08:38:18.863Z,0.80
2019-01-31T08:40:52.129Z,0.90
2019-01-31T08:43:31.860Z,0.90
2019-01-31T08:46:07.091Z,1.00
2019-01-31T08:48:46.405Z,1.00
2019-01-31T08:51:20.604Z,1.10
2019-01-31T08:53:53.130Z,1.10
2019-01-31T08:56:23.245Z,1.10
2019-01-31T08:58:55.399Z,1.20
2019-01-31T09:01:25.853Z,1.30
2019-01-31T09:03:56.635Z,1.30
2019-01-31T09:06:29.799Z,1.30
2019-01-31T09:09:00.098Z,1.30
2019-01-31T09:11:33.348Z,1.30
2019-01-31T09:14:06.182Z,1.30
2019-01-31T09:16:36.377Z,1.20
2019-01-31T09:19:06.932Z,1.10
2019-01-31T09:22:10.198Z,1.10
2019-01-31T09:25:09.899Z,1.10
2019-01-31T09:28:29.010Z,1.20
2019-01-31T09:31:22.067Z,1.30
2019-01-31T09:34:23.789Z,1.30
2019-01-31T09:37:32.017Z,1.30
2019-01-31T09:40:40.876Z,1.40
2019-01-31T09:43:45.969Z,1.40
2019-01-31T09:47:06.074Z,1.40
2019-01-31T09:50:22.491Z,1.50
2019-01-31T09:53:43.692Z,1.60
2019-01-31T09:56:39.384Z,1.60
2019-01-31T09:59:52.235Z,1.70
2019-01-31T10:03:15.450Z,1.80
2019-01-31T10:06:53.484Z,1.90
2019-01-31T10:09:54.215Z,2.00
2019-01-31T10:13:32.571Z,2.10
2019-01-31T10:16:48.143Z,2.10
2019-01-31T10:19:47.300Z,2.20
2019-01-31T10:22:42.089Z,2.10
2019-01-31T10:25:53.778Z,2.00
2019-01-31T10:28:58.171Z,1.90
2019-01-31T10:31:53.410Z,1.80
2019-01-31T10:35:06.972Z,1.90
2019-01-31T10:38:18.248Z,1.80
2019-01-31T10:41:19.968Z,1.70
2019-01-31T10:44:40.152Z,1.70
2019-01-31T10:47:29.941Z,1.80
2019-01-31T10:50:35.700Z,1.70
2019-01-31T10:53:38.726Z,1.70
2019-01-31T10:56:40.457Z,1.80
2019-01-31T11:10:40.782Z,2.20
2019-01-31T11:14:03.839Z,2.10
2019-01-31T11:17:19.437Z,2.00
2019-01-31T11:20:12.277Z,2.00
2019-01-31T11:23:18.110Z,2.00
2019-01-31T11:26:34.454Z,1.90
2019-01-31T11:29:44.902Z,2.00
2019-01-31T11:32:38.684Z,2.00
2019-01-31T11:35:48.482Z,2.10
2019-01-31T11:38:51.560Z,2.10
2019-01-31T11:42:03.565Z,2.30
2019-01-31T11:45:03.194Z,2.50
2019-01-31T11:48:05.237Z,2.70
2019-01-31T11:51:12.533Z,2.70
2019-01-31T11:54:26.104Z,2.60
2019-01-31T11:57:34.521Z,2.40
2019-01-31T12:00:08.995Z,2.20
2019-01-31T12:02:41.956Z,2.20
2019-01-31T12:05:13.244Z,2.10
2019-01-31T12:07:44.761Z,2.00
2019-01-31T12:10:15.661Z,2.00
2019-01-31T12:12:51.648Z,2.10
2019-01-31T12:15:24.536Z,2.00
2019-01-31T12:17:56.295Z,2.00
2019-01-31T12:20:26.933Z,2.00
2019-01-31T12:22:57.268Z,1.90
2019-01-31T12:25:30.964Z,2.00
2019-01-31T12:28:01.727Z,1.90
2019-01-31T12:30:33.272Z,1.90
2019-01-31T12:33:04.646Z,1.90
2019-01-31T12:35:38.707Z,1.80
2019-01-31T12:38:09.752Z,1.90
2019-01-31T12:40:43.355Z,2.10
2019-01-31T12:43:22.224Z,2.10
2019-01-31T12:45:54.775Z,2.20
2019-01-31T12:48:30.033Z,2.20
2019-01-31T12:51:07.851Z,2.30
2019-01-31T12:53:43.750Z,2.30
2019-01-31T12:56:14.372Z,2.50
2019-01-31T12:58:55.666Z,2.50
2019-01-31T13:01:31.085Z,2.60
2019-01-31T13:04:02.307Z,2.50
2019-01-31T13:06:33.813Z,2.40
2019-01-31T13:09:12.999Z,2.50
2019-01-31T13:11:46.310Z,2.50
2019-01-31T13:14:18.735Z,2.60
2019-01-31T13:16:50.375Z,2.60
2019-01-31T13:19:20.691Z,2.50
2019-01-31T13:21:51.241Z,2.40
2019-01-31T13:24:21.599Z,2.40
2019-01-31T13:26:53.615Z,2.20
2019-01-31T13:29:25.549Z,2.20
2019-01-31T13:31:57.839Z,2.20
2019-01-31T13:34:30.776Z,2.20
2019-01-31T13:37:01.171Z,2.30
2019-01-31T13:39:33.738Z,2.50
2019-01-31T13:42:06.929Z,2.60
2019-01-31T13:44:40.095Z,2.70
2019-01-31T13:47:12.470Z,2.60
2019-01-31T13:49:49.095Z,2.50
2019-01-31T13:52:19.759Z,2.60
2019-01-31T13:54:52.392Z,2.50
2019-01-31T13:57:26.629Z,2.40
2019-01-31T13:59:57.496Z,2.50
2019-01-31T14:02:28.863Z,2.60
2019-01-31T14:05:03.489Z,2.70
2019-01-31T14:07:35.082Z,2.80
2019-01-31T14:10:08.443Z,2.60
2019-01-31T14:12:42.410Z,2.60
2019-01-31T14:15:16.195Z,2.70
2019-01-31T14:17:46.660Z,3.00
2019-01-31T14:20:22.661Z,3.00
2019-01-31T14:22:55.534Z,2.90
2019-01-31T14:25:27.481Z,2.80
2019-01-31T14:28:02.288Z,2.90
2019-01-31T14:30:37.532Z,2.70
2019-01-31T14:33:24.765Z,2.60
2019-01-31T14:35:58.539Z,2.60
2019-01-31T14:38:37.152Z,2.70
2019-01-31T14:41:18.039Z,2.70
2019-01-31T14:43:50.677Z,2.80
2019-01-31T14:46:21.441Z,2.60
2019-01-31T14:48:54.835Z,2.50
2019-01-31T14:51:26.226Z,2.50
2019-01-31T14:54:06.437Z,2.50
2019-01-31T14:56:42.112Z,2.50
2019-01-31T14:59:17.160Z,2.40
2019-01-31T15:01:48.088Z,2.20
2019-01-31T15:04:18.768Z,2.20
2019-01-31T15:06:49.471Z,2.20
2019-01-31T15:09:23.804Z,2.10
2019-01-31T15:11:54.486Z,2.20
2019-01-31T15:14:31.617Z,2.30
2019-01-31T15:16:57.365Z,2.30
2019-01-31T15:19:30.492Z,2.40
2019-01-31T15:22:04.029Z,2.40
2019-01-31T15:24:37.868Z,2.30
2019-01-31T15:27:14.282Z,2.20
2019-01-31T15:29:44.607Z,2.20
2019-01-31T15:32:15.443Z,2.20
2019-01-31T15:34:47.282Z,2.10
2019-01-31T15:37:17.811Z,2.20
2019-01-31T15:39:54.532Z,2.20
2019-01-31T15:42:29.829Z,2.20
2019-01-31T15:45:13.974Z,2.20
2019-01-31T15:47:44.568Z,2.10
2019-01-31T15:50:17.202Z,2.00
2019-01-31T15:52:47.837Z,1.90
2019-01-31T15:55:19.431Z,1.80
2019-01-31T15:57:52.628Z,1.70
2019-01-31T16:00:34.352Z,1.70
2019-01-31T16:03:06.402Z,1.60
2019-01-31T16:05:40.230Z,1.50
2019-01-31T16:08:13.900Z,1.50
2019-01-31T16:10:45.038Z,1.50
2019-01-31T16:13:18.488Z,1.50
2019-01-31T16:15:51.706Z,1.50
2019-01-31T16:18:23.819Z,1.50
2019-01-31T16:20:57.331Z,1.50
2019-01-31T16:23:28.237Z,1.50
2019-01-31T16:25:58.730Z,1.60
2019-01-31T16:28:33.081Z,1.60
2019-01-31T16:31:11.101Z,1.60
2019-01-31T16:33:48.425Z,1.80
2019-01-31T16:36:19.304Z,1.80
2019-01-31T16:38:56.076Z,1.80
2019-01-31T16:41:29.889Z,1.80
2019-01-31T16:44:01.291Z,1.80
2019-01-31T16:46:32.339Z,1.80
2019-01-31T16:49:11.376Z,1.80
2019-01-31T16:51:50.968Z,1.90
2019-01-31T16:54:25.794Z,1.80
2019-01-31T16:56:57.188Z,1.80
2019-01-31T16:59:33.431Z,1.80
2019-01-31T17:02:06.647Z,1.80
2019-01-31T17:04:38.044Z,1.80
2019-01-31T17:07:10.930Z,1.80
2019-01-31T17:09:49.092Z,1.90
2019-01-31T17:12:20.234Z,1.90
2019-01-31T17:14:50.382Z,1.90
2019-01-31T17:17:22.280Z,1.80
2019-01-31T17:19:53.047Z,1.80
2019-01-31T17:22:26.384Z,1.80
2019-01-31T17:24:58.302Z,1.80
2019-01-31T17:27:34.703Z,1.80
2019-01-31T17:30:08.279Z,1.80
2019-01-31T17:32:38.909Z,1.80
2019-01-31T17:35:14.199Z,1.80
2019-01-31T17:37:46.136Z,1.70
2019-01-31T17:40:31.339Z,1.70
2019-01-31T17:43:11.546Z,1.80
2019-01-31T17:45:53.271Z,1.80
2019-01-31T17:48:31.489Z,1.80
2019-01-31T17:51:06.411Z,1.80
2019-01-31T17:53:44.418Z,1.80
2019-01-31T17:56:18.966Z,1.80
2019-01-31T17:59:05.804Z,1.80
2019-01-31T18:01:50.858Z,1.70
2019-01-31T18:04:32.794Z,1.70
2019-01-31T18:07:12.000Z,1.60
2019-01-31T18:09:44.334Z,1.60
2019-01-31T18:12:20.628Z,1.60
2019-01-31T18:15:02.012Z,1.60
2019-01-31T18:17:34.486Z,1.60
2019-01-31T18:20:18.041Z,1.60
2019-01-31T18:22:54.429Z,1.50
2019-01-31T18:25:45.186Z,1.50
2019-01-31T18:28:15.864Z,1.50
2019-01-31T18:30:59.379Z,1.60
2019-01-31T18:33:33.363Z,1.50
2019-01-31T18:36:11.813Z,1.50
2019-01-31T18:38:46.747Z,1.50
2019-01-31T18:41:19.915Z,1.50
2019-01-31T18:43:56.330Z,1.40
2019-01-31T18:46:30.583Z,1.50
2019-01-31T18:49:02.477Z,1.40
2019-01-31T18:51:37.107Z,1.40
2019-01-31T18:54:08.136Z,1.40
2019-01-31T18:56:54.955Z,1.50
2019-01-31T18:59:27.575Z,1.40
2019-01-31T19:02:08.787Z,1.40
2019-01-31T19:05:10.721Z,1.40
2019-01-31T19:08:15.495Z,1.30
2019-01-31T19:10:52.875Z,1.20
2019-01-31T19:13:45.724Z,1.20
2019-01-31T19:16:21.143Z,1.30
2019-01-31T19:18:56.542Z,1.30
2019-01-31T19:21:39.713Z,1.30
2019-01-31T19:24:25.988Z,1.30
2019-01-31T19:27:04.797Z,1.30
2019-01-31T19:29:49.525Z,1.30
2019-01-31T19:32:47.741Z,1.30
2019-01-31T19:35:23.205Z,1.30
2019-01-31T19:38:05.580Z,1.20
2019-01-31T19:40:47.672Z,1.20
2019-01-31T19:43:27.306Z,1.20
2019-01-31T19:46:01.481Z,1.10
2019-01-31T19:48:32.222Z,1.00
2019-01-31T19:54:41.290Z,1.00
2019-01-31T19:57:16.864Z,1.00
2019-01-31T19:59:49.144Z,0.90
2019-01-31T20:02:24.398Z,0.90
2019-01-31T20:05:09.761Z,0.70
2019-01-31T20:07:45.330Z,0.70
2019-01-31T20:10:49.485Z,0.70
2019-01-31T20:13:30.925Z,0.80
2019-01-31T20:16:21.891Z,0.80
2019-01-31T20:18:50.617Z,0.80
2019-01-31T20:21:28.301Z,0.80
2019-01-31T20:24:18.235Z,0.80
2019-01-31T20:26:57.110Z,0.80
2019-01-31T20:29:35.726Z,0.80
2019-01-31T20:32:14.686Z,0.80
2019-01-31T20:35:00.761Z,0.80
2019-01-31T20:37:47.437Z,0.90
2019-01-31T20:40:39.613Z,0.90
2019-01-31T20:43:20.427Z,0.80
2019-01-31T20:46:00.889Z,0.80
2019-01-31T20:48:32.024Z,0.80
2019-01-31T20:51:12.645Z,0.70
2019-01-31T20:53:49.270Z,0.80
2019-01-31T20:56:27.049Z,0.80
2019-01-31T20:59:18.621Z,0.70
2019-01-31T21:02:01.525Z,0.80
2019-01-31T21:04:42.377Z,0.70
2019-01-31T21:07:30.603Z,0.80
2019-01-31T21:10:11.864Z,0.80
2019-01-31T21:12:57.592Z,0.80
2019-01-31T21:15:56.464Z,0.90
2019-01-31T21:18:45.973Z,0.90
2019-01-31T21:21:21.436Z,0.90
2019-01-31T21:24:15.581Z,0.90
2019-01-31T21:27:00.640Z,0.90
2019-01-31T21:29:46.573Z,1.00
2019-01-31T21:32:37.442Z,0.90
2019-01-31T21:35:15.675Z,0.90
2019-01-31T21:37:54.467Z,1.00
2019-01-31T21:40:49.587Z,1.00
2019-01-31T21:43:22.253Z,1.00
2019-01-31T21:45:58.129Z,1.10
2019-01-31T21:48:30.916Z,1.20
2019-01-31T21:51:04.986Z,1.10
2019-01-31T21:53:36.795Z,1.00
2019-01-31T21:56:16.870Z,1.10
2019-01-31T21:58:54.947Z,1.10
2019-01-31T22:01:26.780Z,1.10
2019-01-31T22:04:07.827Z,1.10
2019-01-31T22:06:47.362Z,1.20
2019-01-31T22:09:27.176Z,1.10
2019-01-31T22:11:58.779Z,1.20
2019-01-31T22:14:40.610Z,1.20
2019-01-31T22:17:14.968Z,1.10
2019-01-31T22:19:46.781Z,1.20
2019-01-31T22:22:21.542Z,1.20
2019-01-31T22:25:10.589Z,1.20
2019-01-31T22:27:47.092Z,1.20
2019-01-31T22:30:38.870Z,1.30
2019-01-31T22:33:10.153Z,1.20
2019-01-31T22:35:42.314Z,1.20
2019-01-31T22:38:25.650Z,1.10
2019-01-31T22:40:58.820Z,1.00
2019-01-31T22:43:32.749Z,1.00
2019-01-31T22:46:11.194Z,0.90
2019-01-31T22:48:44.643Z,0.80
2019-01-31T22:51:18.162Z,0.70
2019-01-31T22:53:49.092Z,0.70
2019-01-31T22:56:22.905Z,0.70
2019-01-31T22:58:53.157Z,0.60
2019-01-31T23:01:36.990Z,0.60
2019-01-31T23:04:08.207Z,0.60
2019-01-31T23:06:47.119Z,0.60
2019-01-31T23:09:24.235Z,0.60
2019-01-31T23:12:10.510Z,0.60
2019-01-31T23:14:43.939Z,0.60
2019-01-31T23:17:14.833Z,0.60
2019-01-31T23:19:44.986Z,0.60
2019-01-31T23:22:18.432Z,0.60
2019-01-31T23:24:48.600Z,0.60
2019-01-31T23:27:19.120Z,0.60
2019-01-31T23:29:49.336Z,0.60
2019-01-31T23:32:22.437Z,0.60
2019-01-31T23:34:53.082Z,0.60
2019-01-31T23:37:28.291Z,0.50
2019-01-31T23:40:01.750Z,0.50
2019-01-31T23:42:32.917Z,0.50
2019-01-31T23:45:04.518Z,0.50
2019-01-31T23:47:35.953Z,0.50
2019-01-31T23:50:10.483Z,0.60
2019-01-31T23:52:47.637Z,0.60
2019-01-31T23:55:20.479Z,0.50
2019-01-31T23:57:55.954Z,0.60
